sensor_id;sensor_type;location;lat;lon;timestamp;pressure;altitude;pressure_sealevel;temperature;humidity
47716;BME280;33476;50.984;3.538;2023-04-21T00:00:55;101514.44;;;10.29;53.38
47716;BME280;33476;50.984;3.538;2023-04-21T00:03:21;101511.81;;;10.29;53.19
47716;BME280;33476;50.984;3.538;2023-04-21T00:05:48;101509.41;;;10.23;53.19
47716;BME280;33476;50.984;3.538;2023-04-21T00:08:15;101505.94;;;10.22;53.31
47716;BME280;33476;50.984;3.538;2023-04-21T00:10:41;101495.59;;;10.19;53.73
47716;BME280;33476;50.984;3.538;2023-04-21T00:13:06;101486.09;;;10.17;53.56
47716;BME280;33476;50.984;3.538;2023-04-21T00:15:32;101486.91;;;10.19;53.42
47716;BME280;33476;50.984;3.538;2023-04-21T00:17:57;101480.78;;;10.20;53.48
47716;BME280;33476;50.984;3.538;2023-04-21T00:20:23;101472.13;;;10.18;53.14
47716;BME280;33476;50.984;3.538;2023-04-21T00:22:54;101470.50;;;10.15;53.48
47716;BME280;33476;50.984;3.538;2023-04-21T00:25:20;101468.09;;;10.09;53.42
47716;BME280;33476;50.984;3.538;2023-04-21T00:27:45;101474.41;;;10.03;53.65
47716;BME280;33476;50.984;3.538;2023-04-21T00:30:11;101464.06;;;10.00;53.33
47716;BME280;33476;50.984;3.538;2023-04-21T00:32:36;101465.94;;;9.97;53.66
47716;BME280;33476;50.984;3.538;2023-04-21T00:35:02;101456.50;;;9.93;53.49
47716;BME280;33476;50.984;3.538;2023-04-21T00:37:27;101460.97;;;9.89;53.50
47716;BME280;33476;50.984;3.538;2023-04-21T00:39:53;101462.94;;;9.82;53.80
47716;BME280;33476;50.984;3.538;2023-04-21T00:42:18;101458.03;;;9.73;54.17
47716;BME280;33476;50.984;3.538;2023-04-21T00:44:44;101459.97;;;9.68;54.04
47716;BME280;33476;50.984;3.538;2023-04-21T00:47:09;101459.25;;;9.63;54.09
47716;BME280;33476;50.984;3.538;2023-04-21T00:49:35;101458.47;;;9.61;54.04
47716;BME280;33476;50.984;3.538;2023-04-21T00:52:05;101454.16;;;9.60;54.38
47716;BME280;33476;50.984;3.538;2023-04-21T00:54:31;101440.22;;;9.61;53.80
47716;BME280;33476;50.984;3.538;2023-04-21T00:56:59;101436.69;;;9.62;54.02
47716;BME280;33476;50.984;3.538;2023-04-21T00:59:26;101439.31;;;9.62;54.25
47716;BME280;33476;50.984;3.538;2023-04-21T01:01:52;101437.69;;;9.58;54.28
47716;BME280;33476;50.984;3.538;2023-04-21T01:04:17;101436.91;;;9.56;54.74
47716;BME280;33476;50.984;3.538;2023-04-21T01:06:43;101436.84;;;9.57;54.75
47716;BME280;33476;50.984;3.538;2023-04-21T01:09:08;101436.06;;;9.55;54.87
47716;BME280;33476;50.984;3.538;2023-04-21T01:11:34;101425.63;;;9.55;54.79
47716;BME280;33476;50.984;3.538;2023-04-21T01:13:59;101436.00;;;9.57;54.70
47716;BME280;33476;50.984;3.538;2023-04-21T01:16:25;101432.53;;;9.56;55.17
47716;BME280;33476;50.984;3.538;2023-04-21T01:18:51;101427.38;;;9.55;55.23
47716;BME280;33476;50.984;3.538;2023-04-21T01:21:17;101428.28;;;9.54;54.73
47716;BME280;33476;50.984;3.538;2023-04-21T01:23:44;101422.31;;;9.50;55.11
47716;BME280;33476;50.984;3.538;2023-04-21T01:26:09;101417.16;;;9.49;55.12
47716;BME280;33476;50.984;3.538;2023-04-21T01:28:35;101417.06;;;9.52;55.49
47716;BME280;33476;50.984;3.538;2023-04-21T01:31:01;101415.31;;;9.52;55.43
47716;BME280;33476;50.984;3.538;2023-04-21T01:33:26;101417.16;;;9.49;55.41
47716;BME280;33476;50.984;3.538;2023-04-21T01:35:52;101413.69;;;9.48;55.77
47716;BME280;33476;50.984;3.538;2023-04-21T01:38:18;101419.63;;;9.53;55.76
47716;BME280;33476;50.984;3.538;2023-04-21T01:40:47;101418.69;;;9.54;55.80
47716;BME280;33476;50.984;3.538;2023-04-21T01:43:14;101411.41;;;9.64;55.56
47716;BME280;33476;50.984;3.538;2023-04-21T01:45:40;101415.50;;;9.71;55.57
47716;BME280;33476;50.984;3.538;2023-04-21T01:48:05;101419.75;;;9.74;55.45
47716;BME280;33476;50.984;3.538;2023-04-21T01:50:30;101419.75;;;9.74;55.74
47716;BME280;33476;50.984;3.538;2023-04-21T01:52:56;101414.47;;;9.75;56.00
47716;BME280;33476;50.984;3.538;2023-04-21T01:55:21;101417.06;;;9.77;55.97
47716;BME280;33476;50.984;3.538;2023-04-21T01:57:47;101416.09;;;9.79;55.99
47716;BME280;33476;50.984;3.538;2023-04-21T02:00:12;101417.69;;;9.83;56.14
47716;BME280;33476;50.984;3.538;2023-04-21T02:02:38;101408.91;;;9.86;55.88
47716;BME280;33476;50.984;3.538;2023-04-21T02:05:04;101409.75;;;9.87;55.77
47716;BME280;33476;50.984;3.538;2023-04-21T02:07:29;101407.09;;;9.88;55.91
47716;BME280;33476;50.984;3.538;2023-04-21T02:09:55;101404.41;;;9.90;55.97
47716;BME280;33476;50.984;3.538;2023-04-21T02:12:20;101406.13;;;9.91;56.05
47716;BME280;33476;50.984;3.538;2023-04-21T02:14:46;101401.66;;;9.94;56.13
47716;BME280;33476;50.984;3.538;2023-04-21T02:17:12;101400.75;;;9.95;56.51
47716;BME280;33476;50.984;3.538;2023-04-21T02:19:38;101395.59;;;9.94;56.48
47716;BME280;33476;50.984;3.538;2023-04-21T02:22:04;101401.59;;;9.96;56.36
47716;BME280;33476;50.984;3.538;2023-04-21T02:24:31;101392.88;;;9.97;56.74
47716;BME280;33476;50.984;3.538;2023-04-21T02:26:56;101393.59;;;10.00;57.04
47716;BME280;33476;50.984;3.538;2023-04-21T02:29:22;101389.13;;;10.04;56.93
47716;BME280;33476;50.984;3.538;2023-04-21T02:31:48;101393.31;;;10.08;57.15
47716;BME280;33476;50.984;3.538;2023-04-21T02:34:13;101397.59;;;10.10;57.21
47716;BME280;33476;50.984;3.538;2023-04-21T02:36:39;101389.63;;;10.13;57.43
47716;BME280;33476;50.984;3.538;2023-04-21T02:39:04;101390.34;;;10.19;57.70
47716;BME280;33476;50.984;3.538;2023-04-21T02:41:30;101379.75;;;10.22;57.86
47716;BME280;33476;50.984;3.538;2023-04-21T02:43:55;101383.19;;;10.24;58.12
47716;BME280;33476;50.984;3.538;2023-04-21T02:46:20;101376.13;;;10.27;58.02
47716;BME280;33476;50.984;3.538;2023-04-21T02:48:46;101372.53;;;10.30;58.27
47716;BME280;33476;50.984;3.538;2023-04-21T02:51:12;101369.00;;;10.31;58.60
47716;BME280;33476;50.984;3.538;2023-04-21T02:53:38;101364.75;;;10.28;58.75
47716;BME280;33476;50.984;3.538;2023-04-21T02:56:03;101377.75;;;10.30;59.30
47716;BME280;33476;50.984;3.538;2023-04-21T02:58:29;101367.25;;;10.31;59.58
47716;BME280;33476;50.984;3.538;2023-04-21T03:00:55;101365.41;;;10.33;59.82
47716;BME280;33476;50.984;3.538;2023-04-21T03:03:21;101361.03;;;10.34;59.95
47716;BME280;33476;50.984;3.538;2023-04-21T03:05:46;101369.75;;;10.34;60.25
47716;BME280;33476;50.984;3.538;2023-04-21T03:08:12;101364.47;;;10.36;60.59
47716;BME280;33476;50.984;3.538;2023-04-21T03:10:37;101364.41;;;10.37;60.79
47716;BME280;33476;50.984;3.538;2023-04-21T03:13:02;101367.88;;;10.38;60.90
47716;BME280;33476;50.984;3.538;2023-04-21T03:15:28;101360.81;;;10.40;61.05
47716;BME280;33476;50.984;3.538;2023-04-21T03:17:53;101358.19;;;10.40;61.03
47716;BME280;33476;50.984;3.538;2023-04-21T03:20:19;101359.06;;;10.40;61.19
47716;BME280;33476;50.984;3.538;2023-04-21T03:22:45;101359.00;;;10.42;61.16
47716;BME280;33476;50.984;3.538;2023-04-21T03:25:11;101357.19;;;10.44;61.50
47716;BME280;33476;50.984;3.538;2023-04-21T03:27:36;101353.59;;;10.47;61.64
47716;BME280;33476;50.984;3.538;2023-04-21T03:30:02;101350.22;;;10.45;61.60
47716;BME280;33476;50.984;3.538;2023-04-21T03:32:28;101349.41;;;10.43;61.78
47716;BME280;33476;50.984;3.538;2023-04-21T03:34:53;101350.28;;;10.43;61.83
47716;BME280;33476;50.984;3.538;2023-04-21T03:37:19;101351.97;;;10.44;62.28
47716;BME280;33476;50.984;3.538;2023-04-21T03:39:44;101342.44;;;10.43;62.20
47716;BME280;33476;50.984;3.538;2023-04-21T03:42:10;101343.28;;;10.44;62.35
47716;BME280;33476;50.984;3.538;2023-04-21T03:44:35;101333.84;;;10.39;62.58
47716;BME280;33476;50.984;3.538;2023-04-21T03:47:00;101327.84;;;10.37;62.42
47716;BME280;33476;50.984;3.538;2023-04-21T03:49:27;101323.69;;;10.32;62.89
47716;BME280;33476;50.984;3.538;2023-04-21T03:51:53;101322.00;;;10.31;62.97
47716;BME280;33476;50.984;3.538;2023-04-21T03:54:18;101318.53;;;10.30;63.09
47716;BME280;33476;50.984;3.538;2023-04-21T03:56:43;101313.38;;;10.29;63.06
47716;BME280;33476;50.984;3.538;2023-04-21T03:59:09;101314.19;;;10.31;63.45
47716;BME280;33476;50.984;3.538;2023-04-21T04:01:34;101309.81;;;10.31;63.62
47716;BME280;33476;50.984;3.538;2023-04-21T04:04:00;101311.44;;;10.34;63.89
47716;BME280;33476;50.984;3.538;2023-04-21T04:06:25;101298.34;;;10.35;63.79
47716;BME280;33476;50.984;3.538;2023-04-21T04:08:50;101306.19;;;10.35;63.57
47716;BME280;33476;50.984;3.538;2023-04-21T04:11:16;101300.19;;;10.32;63.82
47716;BME280;33476;50.984;3.538;2023-04-21T04:13:41;101305.44;;;10.32;63.90
47716;BME280;33476;50.984;3.538;2023-04-21T04:16:07;101305.44;;;10.32;64.00
47716;BME280;33476;50.984;3.538;2023-04-21T04:18:32;101307.19;;;10.31;63.80
47716;BME280;33476;50.984;3.538;2023-04-21T04:20:57;101303.66;;;10.32;63.91
47716;BME280;33476;50.984;3.538;2023-04-21T04:23:23;101293.16;;;10.34;64.09
47716;BME280;33476;50.984;3.538;2023-04-21T04:25:48;101291.47;;;10.33;63.82
47716;BME280;33476;50.984;3.538;2023-04-21T04:28:13;101297.53;;;10.33;63.79
47716;BME280;33476;50.984;3.538;2023-04-21T04:30:40;101288.84;;;10.33;64.04
47716;BME280;33476;50.984;3.538;2023-04-21T04:33:05;101296.66;;;10.34;64.10
47716;BME280;33476;50.984;3.538;2023-04-21T04:35:31;101294.03;;;10.34;64.00
47716;BME280;33476;50.984;3.538;2023-04-21T04:37:56;101306.22;;;10.34;64.36
47716;BME280;33476;50.984;3.538;2023-04-21T04:40:22;101300.13;;;10.33;64.51
47716;BME280;33476;50.984;3.538;2023-04-21T04:42:47;101297.50;;;10.35;64.39
47716;BME280;33476;50.984;3.538;2023-04-21T04:45:13;101293.06;;;10.37;64.34
47716;BME280;33476;50.984;3.538;2023-04-21T04:47:38;101299.91;;;10.39;64.22
47716;BME280;33476;50.984;3.538;2023-04-21T04:50:05;101300.75;;;10.40;64.56
47716;BME280;33476;50.984;3.538;2023-04-21T04:52:30;101303.31;;;10.41;64.32
47716;BME280;33476;50.984;3.538;2023-04-21T04:54:56;101294.63;;;10.41;64.40
47716;BME280;33476;50.984;3.538;2023-04-21T04:57:21;101292.00;;;10.41;64.49
47716;BME280;33476;50.984;3.538;2023-04-21T04:59:47;101294.59;;;10.43;64.59
47716;BME280;33476;50.984;3.538;2023-04-21T05:02:13;101299.81;;;10.43;64.47
47716;BME280;33476;50.984;3.538;2023-04-21T05:04:38;101296.28;;;10.44;64.63
47716;BME280;33476;50.984;3.538;2023-04-21T05:07:04;101288.44;;;10.44;64.66
47716;BME280;33476;50.984;3.538;2023-04-21T05:09:32;101295.38;;;10.45;64.64
47716;BME280;33476;50.984;3.538;2023-04-21T05:11:57;101291.06;;;10.44;64.75
47716;BME280;33476;50.984;3.538;2023-04-21T05:14:23;101286.75;;;10.43;64.92
47716;BME280;33476;50.984;3.538;2023-04-21T05:16:48;101279.75;;;10.43;64.51
47716;BME280;33476;50.984;3.538;2023-04-21T05:19:13;101284.97;;;10.43;64.83
47716;BME280;33476;50.984;3.538;2023-04-21T05:21:39;101292.75;;;10.45;64.71
47716;BME280;33476;50.984;3.538;2023-04-21T05:24:04;101301.44;;;10.45;64.95
47716;BME280;33476;50.984;3.538;2023-04-21T05:26:30;101307.50;;;10.46;65.02
47716;BME280;33476;50.984;3.538;2023-04-21T05:28:56;101304.13;;;10.44;64.92
47716;BME280;33476;50.984;3.538;2023-04-21T05:31:22;101310.28;;;10.41;64.94
47716;BME280;33476;50.984;3.538;2023-04-21T05:33:48;101310.28;;;10.41;65.11
47716;BME280;33476;50.984;3.538;2023-04-21T05:36:13;101311.94;;;10.44;65.06
47716;BME280;33476;50.984;3.538;2023-04-21T05:38:39;101312.78;;;10.44;65.07
47716;BME280;33476;50.984;3.538;2023-04-21T05:41:05;101317.16;;;10.44;65.07
47716;BME280;33476;50.984;3.538;2023-04-21T05:43:30;101328.63;;;10.39;65.48
47716;BME280;33476;50.984;3.538;2023-04-21T05:46:00;101329.72;;;10.34;65.38
47716;BME280;33476;50.984;3.538;2023-04-21T05:48:25;101332.28;;;10.35;65.86
47716;BME280;33476;50.984;3.538;2023-04-21T05:50:51;101331.38;;;10.36;65.96
47716;BME280;33476;50.984;3.538;2023-04-21T05:53:16;101326.88;;;10.40;66.05
47716;BME280;33476;50.984;3.538;2023-04-21T05:55:41;101332.09;;;10.40;65.58
47716;BME280;33476;50.984;3.538;2023-04-21T05:58:07;101323.31;;;10.43;66.09
47716;BME280;33476;50.984;3.538;2023-04-21T06:00:33;101327.66;;;10.42;66.05
47716;BME280;33476;50.984;3.538;2023-04-21T06:02:58;101329.38;;;10.43;66.06
47716;BME280;33476;50.984;3.538;2023-04-21T06:05:23;101323.13;;;10.47;66.17
47716;BME280;33476;50.984;3.538;2023-04-21T06:07:49;101314.44;;;10.47;66.16
47716;BME280;33476;50.984;3.538;2023-04-21T06:10:16;101308.22;;;10.49;66.33
47716;BME280;33476;50.984;3.538;2023-04-21T06:12:41;101313.28;;;10.54;66.35
47716;BME280;33476;50.984;3.538;2023-04-21T06:15:07;101312.44;;;10.53;66.32
47716;BME280;33476;50.984;3.538;2023-04-21T06:17:33;101308.69;;;10.59;66.57
47716;BME280;33476;50.984;3.538;2023-04-21T06:19:58;101305.06;;;10.63;66.35
47716;BME280;33476;50.984;3.538;2023-04-21T06:22:24;101305.19;;;10.60;66.71
47716;BME280;33476;50.984;3.538;2023-04-21T06:24:50;101296.44;;;10.61;66.74
47716;BME280;33476;50.984;3.538;2023-04-21T06:27:15;101293.72;;;10.64;66.69
47716;BME280;33476;50.984;3.538;2023-04-21T06:29:42;101295.22;;;10.69;66.73
47716;BME280;33476;50.984;3.538;2023-04-21T06:32:08;101303.72;;;10.75;66.68
47716;BME280;33476;50.984;3.538;2023-04-21T06:34:33;101293.22;;;10.76;66.73
47716;BME280;33476;50.984;3.538;2023-04-21T06:36:59;101294.72;;;10.82;66.84
47716;BME280;33476;50.984;3.538;2023-04-21T06:39:25;101302.38;;;10.86;66.67
47716;BME280;33476;50.984;3.538;2023-04-21T06:41:50;101313.75;;;10.85;66.75
47716;BME280;33476;50.984;3.538;2023-04-21T06:44:16;101311.31;;;10.81;66.96
47716;BME280;33476;50.984;3.538;2023-04-21T06:46:41;101315.81;;;10.77;67.10
47716;BME280;33476;50.984;3.538;2023-04-21T06:49:07;101314.16;;;10.75;67.30
47716;BME280;33476;50.984;3.538;2023-04-21T06:51:33;101315.16;;;10.72;67.23
47716;BME280;33476;50.984;3.538;2023-04-21T06:54:01;101307.38;;;10.71;67.35
47716;BME280;33476;50.984;3.538;2023-04-21T06:56:27;101301.91;;;10.77;67.35
47716;BME280;33476;50.984;3.538;2023-04-21T06:58:52;101302.75;;;10.77;67.41
47716;BME280;33476;50.984;3.538;2023-04-21T07:01:18;101296.09;;;10.90;67.17
47716;BME280;33476;50.984;3.538;2023-04-21T07:03:43;101297.47;;;10.99;67.19
47716;BME280;33476;50.984;3.538;2023-04-21T07:06:09;101288.38;;;11.08;67.16
47716;BME280;33476;50.984;3.538;2023-04-21T07:08:35;101286.88;;;11.22;67.04
47716;BME280;33476;50.984;3.538;2023-04-21T07:11:00;101291.13;;;11.25;66.99
47716;BME280;33476;50.984;3.538;2023-04-21T07:13:26;101291.09;;;11.27;66.98
47716;BME280;33476;50.984;3.538;2023-04-21T07:15:51;101289.91;;;11.34;66.76
47716;BME280;33476;50.984;3.538;2023-04-21T07:18:16;101279.03;;;11.43;66.54
47716;BME280;33476;50.984;3.538;2023-04-21T07:20:42;101290.06;;;11.49;66.41
47716;BME280;33476;50.984;3.538;2023-04-21T07:23:07;101288.28;;;11.50;66.24
47716;BME280;33476;50.984;3.538;2023-04-21T07:25:33;101280.44;;;11.50;66.30
47716;BME280;33476;50.984;3.538;2023-04-21T07:27:58;101279.34;;;11.56;66.23
47716;BME280;33476;50.984;3.538;2023-04-21T07:30:23;101282.25;;;11.68;66.31
47716;BME280;33476;50.984;3.538;2023-04-21T07:32:49;101284.56;;;11.74;65.85
47716;BME280;33476;50.984;3.538;2023-04-21T07:35:14;101289.03;;;11.72;65.83
47716;BME280;33476;50.984;3.538;2023-04-21T07:37:40;101279.22;;;11.77;65.98
47716;BME280;33476;50.984;3.538;2023-04-21T07:40:08;101280.19;;;11.75;65.41
47716;BME280;33476;50.984;3.538;2023-04-21T07:42:34;101288.41;;;11.67;65.32
47716;BME280;33476;50.984;3.538;2023-04-21T07:44:59;101290.38;;;11.62;65.73
47716;BME280;33476;50.984;3.538;2023-04-21T07:47:26;101291.31;;;11.61;65.67
47716;BME280;33476;50.984;3.538;2023-04-21T07:49:52;101289.31;;;11.66;65.88
47716;BME280;33476;50.984;3.538;2023-04-21T07:52:17;101290.66;;;11.75;65.63
47716;BME280;33476;50.984;3.538;2023-04-21T07:54:43;101290.53;;;11.78;65.45
47716;BME280;33476;50.984;3.538;2023-04-21T07:57:08;101292.13;;;11.82;65.08
47716;BME280;33476;50.984;3.538;2023-04-21T07:59:34;101292.78;;;11.87;64.80
47716;BME280;33476;50.984;3.538;2023-04-21T08:01:59;101313.78;;;11.86;64.29
47716;BME280;33476;50.984;3.538;2023-04-21T08:04:24;101310.09;;;11.90;64.21
47716;BME280;33476;50.984;3.538;2023-04-21T08:06:50;101302.97;;;11.93;64.08
47716;BME280;33476;50.984;3.538;2023-04-21T08:09:15;101306.16;;;12.00;64.05
47716;BME280;33476;50.984;3.538;2023-04-21T08:11:40;101304.94;;;12.07;63.55
47716;BME280;33476;50.984;3.538;2023-04-21T08:14:06;101311.31;;;12.20;63.20
47716;BME280;33476;50.984;3.538;2023-04-21T08:16:33;101304.34;;;12.38;63.15
47716;BME280;33476;50.984;3.538;2023-04-21T08:18:59;101288.94;;;12.49;62.97
47716;BME280;33476;50.984;3.538;2023-04-21T08:21:25;101293.91;;;12.55;62.89
47716;BME280;33476;50.984;3.538;2023-04-21T08:23:50;101298.66;;;12.47;62.70
47716;BME280;33476;50.984;3.538;2023-04-21T08:26:16;101300.97;;;12.36;62.63
47716;BME280;33476;50.984;3.538;2023-04-21T08:28:43;101308.16;;;12.31;62.27
47716;BME280;33476;50.984;3.538;2023-04-21T08:31:08;101310.03;;;12.29;62.28
47716;BME280;33476;50.984;3.538;2023-04-21T08:33:34;101317.72;;;12.32;62.15
47716;BME280;33476;50.984;3.538;2023-04-21T08:35:59;101309.09;;;12.30;61.97
47716;BME280;33476;50.984;3.538;2023-04-21T08:38:24;101310.66;;;12.34;61.68
47716;BME280;33476;50.984;3.538;2023-04-21T08:40:50;101312.34;;;12.35;61.53
47716;BME280;33476;50.984;3.538;2023-04-21T08:43:15;101313.13;;;12.37;61.05
47716;BME280;33476;50.984;3.538;2023-04-21T08:45:42;101313.91;;;12.39;60.58
47716;BME280;33476;50.984;3.538;2023-04-21T08:48:11;101304.59;;;12.33;60.64
47716;BME280;33476;50.984;3.538;2023-04-21T08:50:41;101303.66;;;12.34;60.22
47716;BME280;33476;50.984;3.538;2023-04-21T08:53:08;101296.56;;;12.36;59.99
47716;BME280;33476;50.984;3.538;2023-04-21T08:55:34;101300.97;;;12.36;60.03
47716;BME280;33476;50.984;3.538;2023-04-21T08:58:03;101305.72;;;12.28;59.69
47716;BME280;33476;50.984;3.538;2023-04-21T09:00:28;101310.88;;;12.29;59.91
47716;BME280;33476;50.984;3.538;2023-04-21T09:02:54;101302.81;;;12.34;60.18
47716;BME280;33476;50.984;3.538;2023-04-21T09:05:21;101306.03;;;12.39;59.92
47716;BME280;33476;50.984;3.538;2023-04-21T09:07:48;101306.81;;;12.41;59.17
47716;BME280;33476;50.984;3.538;2023-04-21T09:10:13;101308.81;;;12.36;58.79
47716;BME280;33476;50.984;3.538;2023-04-21T09:12:39;101318.53;;;12.34;58.71
47716;BME280;33476;50.984;3.538;2023-04-21T09:15:05;101316.09;;;12.29;58.53
47716;BME280;33476;50.984;3.538;2023-04-21T09:17:31;101316.75;;;12.34;58.76
47716;BME280;33476;50.984;3.538;2023-04-21T09:20:15;101306.69;;;12.44;58.27
47716;BME280;33476;50.984;3.538;2023-04-21T09:22:41;101305.34;;;12.72;58.20
47716;BME280;33476;50.984;3.538;2023-04-21T09:25:06;101305.91;;;12.96;57.35
47716;BME280;33476;50.984;3.538;2023-04-21T09:27:35;101308.44;;;13.14;56.95
47716;BME280;33476;50.984;3.538;2023-04-21T09:30:05;101307.47;;;13.34;56.96
47716;BME280;33476;50.984;3.538;2023-04-21T09:32:40;101317.63;;;13.40;56.79
47716;BME280;33476;50.984;3.538;2023-04-21T09:35:09;101309.44;;;13.46;56.61
47716;BME280;33476;50.984;3.538;2023-04-21T09:37:35;101305.47;;;13.55;56.36
47716;BME280;33476;50.984;3.538;2023-04-21T09:40:01;101311.19;;;13.63;56.03
47716;BME280;33476;50.984;3.538;2023-04-21T09:42:32;101305.16;;;13.61;56.40
47716;BME280;33476;50.984;3.538;2023-04-21T09:44:57;101290.72;;;13.70;56.04
47716;BME280;33476;50.984;3.538;2023-04-21T09:47:23;101299.94;;;13.77;55.41
47716;BME280;33476;50.984;3.538;2023-04-21T09:49:52;101293.53;;;13.83;55.82
47716;BME280;33476;50.984;3.538;2023-04-21T09:52:20;101281.50;;;13.94;55.25
47716;BME280;33476;50.984;3.538;2023-04-21T09:54:50;101274.47;;;14.11;54.73
47716;BME280;33476;50.984;3.538;2023-04-21T09:57:23;101272.50;;;14.30;54.35
47716;BME280;33476;50.984;3.538;2023-04-21T09:59:54;101270.75;;;14.46;54.04
47716;BME280;33476;50.984;3.538;2023-04-21T10:02:24;101268.28;;;14.59;53.98
47716;BME280;33476;50.984;3.538;2023-04-21T10:04:51;101270.34;;;14.84;54.23
47716;BME280;33476;50.984;3.538;2023-04-21T10:07:16;101263.72;;;15.07;53.79
47716;BME280;33476;50.984;3.538;2023-04-21T10:09:47;101260.06;;;15.24;52.77
47716;BME280;33476;50.984;3.538;2023-04-21T10:12:14;101250.97;;;15.43;52.42
47716;BME280;33476;50.984;3.538;2023-04-21T10:14:39;101253.44;;;15.61;52.19
47716;BME280;33476;50.984;3.538;2023-04-21T10:17:07;101244.41;;;15.65;51.31
47716;BME280;33476;50.984;3.538;2023-04-21T10:19:35;101243.63;;;15.77;50.82
47716;BME280;33476;50.984;3.538;2023-04-21T10:22:07;101233.66;;;15.82;49.73
47716;BME280;33476;50.984;3.538;2023-04-21T10:24:41;101229.34;;;15.81;50.11
47716;BME280;33476;50.984;3.538;2023-04-21T10:27:11;101223.88;;;15.84;49.43
47716;BME280;33476;50.984;3.538;2023-04-21T10:29:36;101220.06;;;15.88;49.44
47716;BME280;33476;50.984;3.538;2023-04-21T10:32:03;101216.13;;;15.95;49.53
47716;BME280;33476;50.984;3.538;2023-04-21T10:34:34;101215.97;;;16.11;49.05
47716;BME280;33476;50.984;3.538;2023-04-21T10:39:33;101207.88;;;16.41;47.86
47716;BME280;33476;50.984;3.538;2023-04-21T10:44:52;101187.84;;;16.51;47.80
47716;BME280;33476;50.984;3.538;2023-04-21T10:47:34;101188.91;;;16.62;47.32
47716;BME280;33476;50.984;3.538;2023-04-21T10:50:30;101194.00;;;16.65;46.30
47716;BME280;33476;50.984;3.538;2023-04-21T10:52:58;101188.91;;;16.49;46.57
47716;BME280;33476;50.984;3.538;2023-04-21T10:55:32;101180.66;;;16.53;45.95
47716;BME280;33476;50.984;3.538;2023-04-21T10:58:00;101178.66;;;16.44;45.98
47716;BME280;33476;50.984;3.538;2023-04-21T11:00:27;101185.19;;;16.39;46.44
47716;BME280;33476;50.984;3.538;2023-04-21T11:02:57;101185.94;;;16.41;46.77
47716;BME280;33476;50.984;3.538;2023-04-21T11:05:36;101177.31;;;16.51;45.61
47716;BME280;33476;50.984;3.538;2023-04-21T11:08:13;101176.47;;;16.51;45.91
47716;BME280;33476;50.984;3.538;2023-04-21T11:10:54;101160.13;;;16.58;45.99
47716;BME280;33476;50.984;3.538;2023-04-21T11:13:19;101159.66;;;16.92;46.26
47716;BME280;33476;50.984;3.538;2023-04-21T11:16:05;101154.38;;;16.92;44.92
47716;BME280;33476;50.984;3.538;2023-04-21T11:18:32;101149.72;;;16.95;44.82
47716;BME280;33476;50.984;3.538;2023-04-21T11:21:11;101152.25;;;17.09;45.38
47716;BME280;33476;50.984;3.538;2023-04-21T11:23:41;101148.41;;;17.26;44.89
47716;BME280;33476;50.984;3.538;2023-04-21T11:26:11;101147.88;;;17.34;44.57
47716;BME280;33476;50.984;3.538;2023-04-21T11:28:39;101146.25;;;17.44;44.97
47716;BME280;33476;50.984;3.538;2023-04-21T11:31:06;101130.31;;;17.46;44.59
47716;BME280;33476;50.984;3.538;2023-04-21T11:33:35;101129.19;;;17.61;44.49
47716;BME280;33476;50.984;3.538;2023-04-21T11:36:07;101131.00;;;17.60;43.88
47716;BME280;33476;50.984;3.538;2023-04-21T11:38:39;101138.38;;;17.68;43.70
47716;BME280;33476;50.984;3.538;2023-04-21T11:41:05;101133.41;;;17.76;43.55
47716;BME280;33476;50.984;3.538;2023-04-21T11:43:31;101126.69;;;17.72;43.00
47716;BME280;33476;50.984;3.538;2023-04-21T11:46:15;101117.59;;;17.63;42.71
47716;BME280;33476;50.984;3.538;2023-04-21T11:48:42;101117.34;;;17.66;42.81
47716;BME280;33476;50.984;3.538;2023-04-21T11:51:13;101114.59;;;17.68;41.84
47716;BME280;33476;50.984;3.538;2023-04-21T11:53:39;101112.28;;;17.76;42.05
47716;BME280;33476;50.984;3.538;2023-04-21T11:56:05;101100.28;;;17.83;41.76
47716;BME280;33476;50.984;3.538;2023-04-21T11:58:30;101111.09;;;17.80;41.73
47716;BME280;33476;50.984;3.538;2023-04-21T12:00:56;101112.78;;;17.81;41.95
47716;BME280;33476;50.984;3.538;2023-04-21T12:03:21;101101.81;;;17.75;41.21
47716;BME280;33476;50.984;3.538;2023-04-21T12:05:55;101099.31;;;17.60;41.05
47716;BME280;33476;50.984;3.538;2023-04-21T12:08:20;101096.47;;;17.63;41.43
47716;BME280;33476;50.984;3.538;2023-04-21T12:10:47;101105.94;;;17.66;41.25
47716;BME280;33476;50.984;3.538;2023-04-21T12:13:20;101097.06;;;17.67;41.48
47716;BME280;33476;50.984;3.538;2023-04-21T12:15:47;101095.25;;;17.67;41.07
47716;BME280;33476;50.984;3.538;2023-04-21T12:18:13;101090.81;;;17.81;41.40
47716;BME280;33476;50.984;3.538;2023-04-21T12:20:48;101082.19;;;17.90;40.86
47716;BME280;33476;50.984;3.538;2023-04-21T12:23:14;101091.94;;;17.89;40.47
47716;BME280;33476;50.984;3.538;2023-04-21T12:25:39;101090.41;;;17.74;40.37
47716;BME280;33476;50.984;3.538;2023-04-21T12:28:07;101084.81;;;17.66;40.18
47716;BME280;33476;50.984;3.538;2023-04-21T12:30:32;101083.00;;;17.66;40.61
47716;BME280;33476;50.984;3.538;2023-04-21T12:32:57;101083.56;;;17.72;40.54
47716;BME280;33476;50.984;3.538;2023-04-21T12:35:24;101084.06;;;17.77;39.76
47716;BME280;33476;50.984;3.538;2023-04-21T12:37:49;101080.16;;;17.93;40.28
47716;BME280;33476;50.984;3.538;2023-04-21T12:40:15;101070.38;;;18.07;40.20
47716;BME280;33476;50.984;3.538;2023-04-21T12:42:40;101058.63;;;18.22;40.06
47716;BME280;33476;50.984;3.538;2023-04-21T12:45:06;101069.34;;;18.32;39.47
47716;BME280;33476;50.984;3.538;2023-04-21T12:47:31;101075.47;;;18.32;38.92
47716;BME280;33476;50.984;3.538;2023-04-21T12:49:57;101068.84;;;18.27;38.18
47716;BME280;33476;50.984;3.538;2023-04-21T12:52:22;101068.69;;;18.17;38.17
47716;BME280;33476;50.984;3.538;2023-04-21T12:54:48;101067.97;;;18.15;38.28